createdAt,value
2018-12-19T00:00:44.638Z,-1.10
2018-12-19T00:03:13.927Z,-1.20
2018-12-19T00:05:43.109Z,-1.20
2018-12-19T00:08:12.288Z,-1.30
2018-12-19T00:10:41.422Z,-1.30
2018-12-19T00:13:14.796Z,-1.30
2018-12-19T00:15:44.078Z,-1.40
2018-12-19T00:18:13.314Z,-1.50
2018-12-19T00:20:42.566Z,-1.50
2018-12-19T00:23:11.722Z,-1.50
2018-12-19T00:25:40.973Z,-1.40
2018-12-19T00:28:10.097Z,-1.50
2018-12-19T00:30:39.268Z,-1.50
2018-12-19T00:33:08.407Z,-1.60
2018-12-19T00:35:37.534Z,-1.60
2018-12-19T00:38:06.700Z,-1.60
2018-12-19T00:40:35.808Z,-1.60
2018-12-19T00:43:05.048Z,-1.60
2018-12-19T00:45:34.157Z,-1.60
2018-12-19T00:48:03.280Z,-1.60
2018-12-19T00:50:32.778Z,-1.40
2018-12-19T00:53:01.890Z,-1.50
2018-12-19T00:55:31.131Z,-1.50
2018-12-19T00:58:00.227Z,-1.50
2018-12-19T01:00:29.493Z,-1.50
2018-12-19T01:02:58.639Z,-1.50
2018-12-19T01:05:27.878Z,-1.40
2018-12-19T01:07:56.998Z,-1.40
2018-12-19T01:10:26.194Z,-1.40
2018-12-19T01:12:55.363Z,-1.40
2018-12-19T01:15:24.572Z,-1.40
2018-12-19T01:17:53.666Z,-1.50
2018-12-19T01:20:22.896Z,-1.50
2018-12-19T01:22:52.074Z,-1.60
2018-12-19T01:25:21.276Z,-1.60
2018-12-19T01:27:50.377Z,-1.60
2018-12-19T01:30:19.571Z,-1.70
2018-12-19T01:32:48.734Z,-1.70
2018-12-19T01:35:17.986Z,-1.80
2018-12-19T01:37:47.058Z,-1.80
2018-12-19T01:40:16.294Z,-1.80
2018-12-19T01:42:45.445Z,-1.80
2018-12-19T01:45:14.684Z,-1.80
2018-12-19T01:47:44.103Z,-1.80
2018-12-19T01:50:13.291Z,-1.80
2018-12-19T01:52:42.394Z,-1.80
2018-12-19T01:55:11.592Z,-1.80
2018-12-19T01:57:40.684Z,-1.80
2018-12-19T02:00:09.957Z,-1.80
2018-12-19T02:02:39.074Z,-1.80
2018-12-19T02:05:08.262Z,-1.80
2018-12-19T02:07:37.398Z,-1.80
2018-12-19T02:10:06.647Z,-1.80
2018-12-19T02:12:35.784Z,-1.80
2018-12-19T02:15:05.232Z,-1.80
2018-12-19T02:17:34.403Z,-1.90
2018-12-19T02:20:03.585Z,-1.90
2018-12-19T02:22:32.732Z,-1.90
2018-12-19T02:25:01.912Z,-1.90
2018-12-19T02:27:31.071Z,-1.90
2018-12-19T02:30:00.244Z,-1.90
2018-12-19T02:32:29.364Z,-1.90
2018-12-19T02:34:58.560Z,-1.90
2018-12-19T02:37:27.712Z,-1.90
2018-12-19T02:39:56.977Z,-2.00
2018-12-19T02:42:26.103Z,-1.90
2018-12-19T02:44:55.270Z,-1.90
2018-12-19T02:47:24.416Z,-1.90
2018-12-19T02:49:53.601Z,-1.80
2018-12-19T02:52:22.809Z,-1.80
2018-12-19T02:54:52.008Z,-1.90
2018-12-19T02:57:21.120Z,-1.80
2018-12-19T02:59:50.279Z,-1.80
2018-12-19T03:02:19.481Z,-1.90
2018-12-19T03:04:48.638Z,-1.90
2018-12-19T03:07:17.743Z,-1.90
2018-12-19T03:09:46.849Z,-2.00
2018-12-19T03:12:15.975Z,-2.00
2018-12-19T03:14:45.101Z,-2.00
2018-12-19T03:17:14.269Z,-1.80
2018-12-19T03:19:43.382Z,-1.90
2018-12-19T03:22:12.525Z,-1.90
2018-12-19T03:24:41.696Z,-1.80
2018-12-19T03:27:10.853Z,-1.80
2018-12-19T03:29:40.180Z,-1.90
2018-12-19T03:32:09.337Z,-1.90
2018-12-19T03:34:38.582Z,-1.90
2018-12-19T03:37:07.681Z,-1.90
2018-12-19T03:39:36.807Z,-1.90
2018-12-19T03:42:06.007Z,-1.90
2018-12-19T03:44:35.181Z,-1.80
2018-12-19T03:47:04.300Z,-1.70
2018-12-19T03:49:33.529Z,-1.70
2018-12-19T03:52:02.722Z,-1.60
2018-12-19T03:54:31.921Z,-1.60
2018-12-19T03:57:01.457Z,-1.60
2018-12-19T03:59:30.791Z,-1.50
2018-12-19T04:01:59.935Z,-1.60
2018-12-19T04:04:29.183Z,-1.70
2018-12-19T04:06:58.254Z,-1.70
2018-12-19T04:09:27.466Z,-1.80
2018-12-19T04:11:56.789Z,-1.80
2018-12-19T04:14:25.962Z,-1.80
2018-12-19T04:16:55.028Z,-1.90
2018-12-19T04:19:24.171Z,-1.90
2018-12-19T04:21:53.300Z,-1.80
2018-12-19T04:24:22.415Z,-1.80
2018-12-19T04:26:51.466Z,-1.70
2018-12-19T04:29:20.713Z,-1.70
2018-12-19T04:31:49.794Z,-1.60
2018-12-19T04:34:19.013Z,-1.50
2018-12-19T04:36:48.156Z,-1.50
2018-12-19T04:39:17.306Z,-1.50
2018-12-19T04:41:46.491Z,-1.50
2018-12-19T04:44:15.666Z,-1.50
2018-12-19T04:46:44.845Z,-1.50
2018-12-19T04:49:13.989Z,-1.50
2018-12-19T04:51:43.178Z,-1.50
2018-12-19T04:54:12.373Z,-1.60
2018-12-19T04:56:41.580Z,-1.50
2018-12-19T04:59:10.780Z,-1.50
2018-12-19T05:01:39.945Z,-1.50
2018-12-19T05:04:09.241Z,-1.60
2018-12-19T05:06:38.451Z,-1.60
2018-12-19T05:09:08.699Z,-1.60
2018-12-19T05:11:38.060Z,-1.60
2018-12-19T05:14:07.194Z,-1.50
2018-12-19T05:16:36.345Z,-1.60
2018-12-19T05:19:05.518Z,-1.50
2018-12-19T05:21:34.755Z,-1.50
2018-12-19T05:24:03.926Z,-1.50
2018-12-19T05:26:33.085Z,-1.50
2018-12-19T05:29:02.237Z,-1.50
2018-12-19T05:31:31.393Z,-1.50
2018-12-19T05:34:00.675Z,-1.50
2018-12-19T05:36:29.835Z,-1.60
2018-12-19T05:38:58.949Z,-1.50
2018-12-19T05:41:28.143Z,-1.50
2018-12-19T05:43:57.314Z,-1.40
2018-12-19T05:46:26.493Z,-1.30
2018-12-19T05:48:55.565Z,-1.20
2018-12-19T05:51:24.735Z,-1.20
2018-12-19T05:53:53.891Z,-1.20
2018-12-19T05:56:23.150Z,-1.20
2018-12-19T05:58:52.270Z,-1.10
2018-12-19T06:01:21.461Z,-1.00
2018-12-19T06:03:50.644Z,-1.00
2018-12-19T06:06:19.895Z,-1.10
2018-12-19T06:08:49.078Z,-1.10
2018-12-19T06:11:18.343Z,-1.10
2018-12-19T06:13:47.589Z,-1.10
2018-12-19T06:16:16.810Z,-1.00
2018-12-19T06:18:46.614Z,-1.00
2018-12-19T06:21:15.711Z,-1.10
2018-12-19T06:23:44.878Z,-1.00
2018-12-19T06:26:14.073Z,-1.00
2018-12-19T06:28:43.315Z,-1.00
2018-12-19T06:31:12.515Z,-1.00
2018-12-19T06:33:41.935Z,-1.00
2018-12-19T06:36:11.074Z,-0.90
2018-12-19T06:38:40.282Z,-1.00
2018-12-19T06:41:09.391Z,-1.00
2018-12-19T06:43:38.667Z,-1.00
2018-12-19T06:46:07.846Z,-1.00
2018-12-19T06:48:37.166Z,-1.10
2018-12-19T06:51:06.966Z,-1.10
2018-12-19T06:53:36.097Z,-1.10
2018-12-19T06:56:05.355Z,-1.10
2018-12-19T06:58:34.546Z,-1.10
2018-12-19T07:01:03.694Z,-1.00
2018-12-19T07:03:32.845Z,-1.00
2018-12-19T07:06:02.090Z,-1.10
2018-12-19T07:08:31.254Z,-1.00
2018-12-19T07:11:00.514Z,-1.00
2018-12-19T07:13:29.635Z,-0.80
2018-12-19T07:15:58.795Z,-0.80
2018-12-19T07:18:27.926Z,-0.80
2018-12-19T07:20:57.424Z,-0.80
2018-12-19T07:23:26.571Z,-0.80
2018-12-19T07:25:55.739Z,-0.70
2018-12-19T07:28:24.886Z,-0.70
2018-12-19T07:30:54.066Z,-0.70
2018-12-19T07:33:24.384Z,-0.70
2018-12-19T07:35:53.530Z,-0.70
2018-12-19T07:38:22.710Z,-0.60
2018-12-19T07:40:51.827Z,-0.60
2018-12-19T07:43:20.946Z,-0.60
2018-12-19T07:45:50.199Z,-0.60
2018-12-19T07:48:19.694Z,-0.50
2018-12-19T07:50:48.841Z,-0.40
2018-12-19T07:53:18.078Z,-0.40
2018-12-19T07:55:47.494Z,-0.40
2018-12-19T07:58:16.642Z,-0.20
2018-12-19T08:00:46.492Z,-0.20
2018-12-19T08:03:15.848Z,-0.20
2018-12-19T08:05:45.164Z,-0.20
2018-12-19T08:08:14.401Z,-0.20
2018-12-19T08:10:43.722Z,-0.20
2018-12-19T08:13:13.931Z,-0.20
2018-12-19T08:15:43.145Z,-0.20
2018-12-19T08:18:12.380Z,-0.20
2018-12-19T08:20:41.556Z,-0.10
2018-12-19T08:23:10.730Z,-0.10
2018-12-19T08:25:39.950Z,-0.10
2018-12-19T08:28:09.135Z,-0.10
2018-12-19T08:30:38.294Z,0.00
2018-12-19T08:33:07.521Z,0.00
2018-12-19T08:35:36.674Z,0.10
2018-12-19T08:38:05.999Z,0.20
2018-12-19T08:40:35.612Z,0.20
2018-12-19T08:43:05.768Z,0.30
2018-12-19T08:45:35.324Z,0.30
2018-12-19T08:48:04.615Z,0.30
2018-12-19T08:50:34.153Z,0.50
2018-12-19T08:53:03.346Z,0.50
2018-12-19T08:55:32.694Z,0.60
2018-12-19T08:58:01.890Z,0.60
2018-12-19T09:00:31.069Z,0.70
2018-12-19T09:03:00.174Z,0.70
2018-12-19T09:05:29.270Z,0.80
2018-12-19T09:07:58.431Z,0.80
2018-12-19T09:10:27.535Z,0.90
2018-12-19T09:12:56.859Z,1.00
2018-12-19T09:15:31.248Z,1.10
2018-12-19T09:18:00.445Z,1.10
2018-12-19T09:20:29.577Z,1.10
2018-12-19T09:23:00.816Z,1.20
2018-12-19T09:25:30.117Z,1.20
2018-12-19T09:27:59.466Z,1.20
2018-12-19T09:30:28.538Z,1.30
2018-12-19T09:32:57.766Z,1.30
2018-12-19T09:35:26.965Z,1.30
2018-12-19T09:37:56.149Z,1.40
2018-12-19T09:40:25.315Z,1.40
2018-12-19T09:42:54.486Z,1.40
2018-12-19T09:45:23.647Z,1.50
2018-12-19T09:47:52.738Z,1.50
2018-12-19T09:50:21.946Z,1.50
2018-12-19T09:52:51.210Z,1.50
2018-12-19T09:55:20.447Z,1.50
2018-12-19T09:57:49.967Z,1.50
2018-12-19T10:00:24.464Z,1.50
2018-12-19T10:02:53.807Z,1.50
2018-12-19T10:05:23.148Z,1.50
2018-12-19T10:07:52.302Z,1.60
2018-12-19T10:10:21.387Z,1.60
2018-12-19T10:12:50.589Z,1.60
2018-12-19T10:15:19.792Z,1.70
2018-12-19T10:17:48.959Z,1.80
2018-12-19T10:20:18.150Z,1.90
2018-12-19T10:22:49.431Z,1.90
2018-12-19T10:25:18.648Z,1.90
2018-12-19T10:27:47.832Z,2.00
2018-12-19T10:30:17.036Z,2.10
2018-12-19T10:32:48.950Z,2.10
2018-12-19T10:35:18.201Z,2.20
2018-12-19T10:37:47.290Z,2.30
2018-12-19T10:40:16.439Z,2.30
2018-12-19T10:42:45.615Z,2.30
2018-12-19T10:45:14.734Z,2.30
2018-12-19T10:47:43.938Z,2.30
2018-12-19T10:50:13.165Z,2.30
2018-12-19T10:52:42.355Z,2.30
2018-12-19T10:55:11.518Z,2.30
2018-12-19T10:57:41.369Z,2.30
2018-12-19T11:00:17.872Z,2.30
2018-12-19T11:02:47.197Z,2.40
2018-12-19T11:05:16.386Z,2.40
2018-12-19T11:07:45.499Z,2.40
2018-12-19T11:10:14.794Z,2.50
2018-12-19T11:12:43.964Z,2.50
2018-12-19T11:15:13.206Z,2.60
2018-12-19T11:17:42.338Z,2.60
2018-12-19T11:20:11.870Z,2.70
2018-12-19T11:22:41.164Z,2.70
2018-12-19T11:25:10.391Z,2.70
2018-12-19T11:27:39.611Z,2.60
2018-12-19T11:30:09.736Z,2.70
2018-12-19T11:32:39.670Z,2.80
2018-12-19T11:35:08.963Z,2.80
2018-12-19T11:37:38.172Z,2.80
2018-12-19T11:40:08.942Z,2.80
2018-12-19T11:42:38.206Z,2.80
2018-12-19T11:45:07.275Z,2.80
2018-12-19T11:47:36.457Z,2.90
2018-12-19T11:50:06.827Z,2.80
2018-12-19T11:52:35.994Z,2.90
2018-12-19T11:55:05.706Z,2.90
2018-12-19T11:57:35.006Z,2.90
2018-12-19T12:00:04.813Z,2.90
2018-12-19T12:02:33.947Z,2.90
2018-12-19T12:05:03.134Z,3.00
2018-12-19T12:07:32.465Z,3.00
2018-12-19T12:10:01.569Z,3.10
2018-12-19T12:12:30.842Z,3.10
2018-12-19T12:15:00.039Z,3.10
2018-12-19T12:17:29.195Z,3.20
2018-12-19T12:19:58.262Z,3.20
2018-12-19T12:22:28.055Z,3.20
2018-12-19T12:24:57.221Z,3.30
2018-12-19T12:27:26.407Z,3.40
2018-12-19T12:29:55.435Z,3.40
2018-12-19T12:32:24.533Z,3.40
2018-12-19T12:34:53.736Z,3.50
2018-12-19T12:37:22.864Z,3.60
2018-12-19T12:39:52.022Z,3.60
2018-12-19T12:42:21.218Z,3.60
2018-12-19T12:44:50.335Z,3.60
2018-12-19T12:47:19.585Z,3.60
2018-12-19T12:49:48.729Z,3.50
2018-12-19T12:52:17.984Z,3.50
2018-12-19T12:54:47.149Z,3.50
2018-12-19T12:57:16.235Z,3.40
2018-12-19T12:59:45.347Z,3.40
2018-12-19T13:02:14.613Z,3.40
2018-12-19T13:04:43.734Z,3.40
2018-12-19T13:07:12.854Z,3.50
2018-12-19T13:09:41.977Z,3.50
2018-12-19T13:12:11.087Z,3.50
2018-12-19T13:14:40.279Z,3.50
2018-12-19T13:17:09.422Z,3.60
2018-12-19T13:19:38.537Z,3.60
2018-12-19T13:22:07.727Z,3.60
2018-12-19T13:24:36.898Z,3.60
2018-12-19T13:27:06.088Z,3.60
2018-12-19T13:29:35.192Z,3.50
2018-12-19T13:32:04.633Z,3.50
2018-12-19T13:34:33.778Z,3.50
2018-12-19T13:37:03.019Z,3.60
2018-12-19T13:39:32.234Z,3.50
2018-12-19T13:42:05.620Z,3.50
2018-12-19T13:44:32.508Z,3.50
2018-12-19T13:47:01.669Z,3.40
2018-12-19T13:49:30.827Z,3.40
2018-12-19T13:52:00.061Z,3.40
2018-12-19T13:54:29.213Z,3.40
2018-12-19T13:56:58.380Z,3.40
2018-12-19T13:59:27.555Z,3.40
2018-12-19T14:01:56.683Z,3.40
2018-12-19T14:04:26.045Z,3.40
2018-12-19T14:06:55.358Z,3.40
2018-12-19T14:09:24.588Z,3.30
2018-12-19T14:11:53.919Z,3.30
2018-12-19T14:14:23.058Z,3.30
2018-12-19T14:16:52.187Z,3.30
2018-12-19T14:19:21.428Z,3.30
2018-12-19T14:21:50.538Z,3.30
2018-12-19T14:24:19.652Z,3.30
2018-12-19T14:26:48.853Z,3.20
2018-12-19T14:29:18.042Z,3.20
2018-12-19T14:31:47.275Z,3.20
2018-12-19T14:34:16.447Z,3.10
2018-12-19T14:36:45.614Z,3.10
2018-12-19T14:39:15.009Z,3.20
2018-12-19T14:41:44.838Z,3.20
2018-12-19T14:44:13.935Z,3.20
2018-12-19T14:46:43.220Z,3.20
2018-12-19T14:49:14.067Z,3.20
2018-12-19T14:51:43.683Z,3.10
2018-12-19T14:54:12.829Z,3.10
2018-12-19T14:56:42.098Z,3.10
2018-12-19T14:59:11.272Z,3.10
2018-12-19T15:01:41.086Z,3.10
2018-12-19T15:04:10.195Z,3.10
2018-12-19T15:06:39.378Z,3.00
2018-12-19T15:09:08.612Z,3.10
2018-12-19T15:11:37.914Z,3.10
2018-12-19T15:14:07.146Z,3.10
2018-12-19T15:16:36.437Z,3.20
2018-12-19T15:19:05.680Z,3.10
2018-12-19T15:21:34.865Z,3.10
2018-12-19T15:24:04.070Z,3.10
2018-12-19T15:26:33.272Z,3.00
2018-12-19T15:29:02.598Z,3.00
2018-12-19T15:31:31.705Z,3.00
2018-12-19T15:34:00.860Z,2.90
2018-12-19T15:36:30.261Z,2.90
2018-12-19T15:38:59.566Z,2.80
2018-12-19T15:41:28.765Z,2.80
2018-12-19T15:43:57.945Z,2.80
2018-12-19T15:46:27.259Z,2.70
2018-12-19T15:48:56.528Z,2.60
2018-12-19T15:51:25.660Z,2.60
2018-12-19T15:53:54.822Z,2.60
2018-12-19T15:56:24.892Z,2.60
2018-12-19T15:58:54.075Z,2.60
2018-12-19T16:01:23.264Z,2.60
2018-12-19T16:03:52.408Z,2.60
2018-12-19T16:06:21.678Z,2.60
2018-12-19T16:08:51.389Z,2.50
2018-12-19T16:11:20.594Z,2.40
2018-12-19T16:13:49.921Z,2.40
2018-12-19T16:16:19.086Z,2.50
2018-12-19T16:18:49.248Z,2.50
2018-12-19T16:21:19.523Z,2.50
2018-12-19T16:23:50.195Z,2.40
2018-12-19T16:26:19.458Z,2.50
2018-12-19T16:28:48.695Z,2.50
2018-12-19T16:31:18.235Z,2.50
2018-12-19T16:33:47.281Z,2.50
2018-12-19T16:36:16.454Z,2.50
2018-12-19T16:38:46.596Z,2.50
2018-12-19T16:41:15.829Z,2.50
2018-12-19T16:43:45.019Z,2.60
2018-12-19T16:46:14.181Z,2.60
2018-12-19T16:48:43.408Z,2.60
2018-12-19T16:51:12.533Z,2.60
2018-12-19T16:53:41.708Z,2.60
2018-12-19T16:56:10.836Z,2.60
2018-12-19T16:58:39.971Z,2.50
2018-12-19T17:01:09.123Z,2.50
2018-12-19T17:03:38.242Z,2.50
2018-12-19T17:06:07.535Z,2.50
2018-12-19T17:08:36.846Z,2.50
2018-12-19T17:11:06.100Z,2.50
2018-12-19T17:13:35.314Z,2.50
2018-12-19T17:16:04.394Z,2.50
2018-12-19T17:18:33.605Z,2.50
2018-12-19T17:21:02.738Z,2.40
2018-12-19T17:23:31.987Z,2.40
2018-12-19T17:26:01.146Z,2.40
2018-12-19T17:28:30.354Z,2.40
2018-12-19T17:30:59.617Z,2.40
2018-12-19T17:33:28.830Z,2.40
2018-12-19T17:35:57.978Z,2.40
2018-12-19T17:38:28.215Z,2.40
2018-12-19T17:40:57.365Z,2.40
2018-12-19T17:43:27.607Z,2.30
2018-12-19T17:45:56.788Z,2.30
2018-12-19T17:48:26.245Z,2.30
2018-12-19T17:50:55.812Z,2.30
2018-12-19T17:53:25.519Z,2.30
2018-12-19T17:55:55.872Z,2.30
2018-12-19T17:58:25.077Z,2.30
2018-12-19T18:00:54.735Z,2.30
2018-12-19T18:03:24.416Z,2.30
2018-12-19T18:05:53.860Z,2.30
2018-12-19T18:08:24.346Z,2.30
2018-12-19T18:10:53.979Z,2.30
2018-12-19T18:13:23.326Z,2.30
2018-12-19T18:15:53.510Z,2.30
2018-12-19T18:18:23.018Z,2.30
2018-12-19T18:20:52.612Z,2.30
2018-12-19T18:23:21.694Z,2.20
2018-12-19T18:25:50.866Z,2.20
2018-12-19T18:28:20.110Z,2.20
2018-12-19T18:30:49.451Z,2.10
2018-12-19T18:33:18.563Z,2.10
2018-12-19T18:35:47.999Z,2.00
2018-12-19T18:38:17.386Z,2.00
2018-12-19T18:40:46.586Z,2.00
2018-12-19T18:43:15.709Z,1.90
2018-12-19T18:45:44.802Z,1.80
2018-12-19T18:48:13.961Z,1.70
2018-12-19T18:50:43.365Z,1.60
2018-12-19T18:53:13.298Z,1.50
2018-12-19T18:55:42.976Z,1.50
2018-12-19T18:58:12.331Z,1.40
2018-12-19T19:00:44.230Z,1.40
2018-12-19T19:03:15.090Z,1.30
2018-12-19T19:05:44.809Z,1.40
2018-12-19T19:08:14.604Z,1.40
2018-12-19T19:10:45.020Z,1.30
2018-12-19T19:13:19.707Z,1.30
2018-12-19T19:15:45.943Z,1.30
2018-12-19T19:18:15.434Z,1.30
2018-12-19T19:20:45.015Z,1.40
2018-12-19T19:23:14.551Z,1.40
2018-12-19T19:25:44.225Z,1.40
2018-12-19T19:28:13.702Z,1.50
2018-12-19T19:30:43.171Z,1.50
2018-12-19T19:33:12.678Z,1.50
2018-12-19T19:35:42.182Z,1.50
2018-12-19T19:38:11.718Z,1.50
2018-12-19T19:40:41.283Z,1.40
2018-12-19T19:43:10.937Z,1.40
2018-12-19T19:45:40.245Z,1.40
2018-12-19T19:48:09.775Z,1.50
2018-12-19T19:50:39.386Z,1.50
2018-12-19T19:53:09.047Z,1.50
2018-12-19T19:55:38.421Z,1.60
2018-12-19T19:58:08.895Z,1.60
2018-12-19T20:00:38.434Z,1.70
2018-12-19T20:03:07.836Z,1.70
2018-12-19T20:05:37.292Z,1.80
2018-12-19T20:08:06.655Z,1.80
2018-12-19T20:10:37.006Z,1.80
2018-12-19T20:13:06.943Z,1.70
2018-12-19T20:15:36.323Z,1.80
2018-12-19T20:18:06.915Z,1.80
2018-12-19T20:20:36.340Z,1.70
2018-12-19T20:23:05.783Z,1.70
2018-12-19T20:25:35.182Z,1.70
2018-12-19T20:28:05.151Z,1.70
2018-12-19T20:30:34.560Z,1.70
2018-12-19T20:33:03.977Z,1.70
2018-12-19T20:35:33.607Z,1.70
2018-12-19T20:38:05.392Z,1.80
2018-12-19T20:40:34.675Z,1.80
2018-12-19T20:43:06.773Z,1.80
2018-12-19T20:45:35.576Z,1.80
2018-12-19T20:48:05.234Z,1.80
2018-12-19T20:50:34.844Z,1.80
2018-12-19T20:53:04.098Z,1.80
2018-12-19T20:55:33.612Z,1.80
2018-12-19T20:58:04.055Z,1.80
2018-12-19T21:00:33.629Z,1.80
2018-12-19T21:03:03.024Z,1.80
2018-12-19T21:05:32.611Z,1.90
2018-12-19T21:08:02.152Z,1.90
2018-12-19T21:10:31.693Z,2.00
2018-12-19T21:13:01.106Z,2.00
2018-12-19T21:15:30.537Z,2.10
2018-12-19T21:18:05.189Z,2.10
2018-12-19T21:20:35.446Z,2.10
2018-12-19T21:23:06.166Z,2.10
2018-12-19T21:25:35.914Z,2.00
2018-12-19T21:28:05.282Z,1.90
2018-12-19T21:30:34.956Z,1.90
2018-12-19T21:33:04.471Z,1.90
2018-12-19T21:35:34.144Z,1.90
2018-12-19T21:38:04.813Z,1.90
2018-12-19T21:40:34.422Z,1.80
2018-12-19T21:43:03.645Z,1.80
2018-12-19T21:45:33.399Z,1.80
2018-12-19T21:48:02.657Z,1.80
2018-12-19T21:50:31.877Z,1.70
2018-12-19T21:53:01.045Z,1.80
2018-12-19T21:55:30.182Z,1.80
2018-12-19T21:57:59.453Z,1.70
2018-12-19T22:00:34.647Z,1.70
2018-12-19T22:03:07.097Z,1.70
2018-12-19T22:05:39.698Z,1.80
2018-12-19T22:08:10.408Z,1.70
2018-12-19T22:10:40.614Z,1.80
2018-12-19T22:13:10.312Z,1.80
2018-12-19T22:15:40.045Z,1.80
2018-12-19T22:18:14.983Z,1.80
2018-12-19T22:20:45.047Z,1.70
2018-12-19T22:23:15.440Z,1.80
2018-12-19T22:25:45.102Z,1.80
2018-12-19T22:28:14.587Z,1.80
2018-12-19T22:30:44.368Z,1.70
2018-12-19T22:33:14.600Z,1.70
2018-12-19T22:35:45.160Z,1.70
2018-12-19T22:38:15.527Z,1.60
2018-12-19T22:40:45.617Z,1.70
2018-12-19T22:43:15.570Z,1.70
2018-12-19T22:45:46.303Z,1.70
2018-12-19T22:48:16.379Z,1.60
2018-12-19T22:50:46.267Z,1.60
2018-12-19T22:53:15.867Z,1.80
2018-12-19T22:55:45.425Z,1.80
2018-12-19T22:58:15.425Z,1.80
2018-12-19T23:00:51.935Z,1.70
2018-12-19T23:03:23.667Z,1.70
2018-12-19T23:05:53.860Z,1.80
2018-12-19T23:08:24.560Z,1.80
2018-12-19T23:10:53.802Z,1.80
2018-12-19T23:13:23.156Z,1.80
2018-12-19T23:15:52.384Z,1.70
2018-12-19T23:18:27.527Z,1.70
2018-12-19T23:20:56.905Z,1.70
2018-12-19T23:23:26.858Z,1.70
2018-12-19T23:25:56.258Z,1.70
2018-12-19T23:28:25.544Z,1.80
2018-12-19T23:30:54.689Z,1.80
2018-12-19T23:33:23.874Z,1.80
2018-12-19T23:35:53.085Z,1.80
2018-12-19T23:38:22.254Z,1.90
2018-12-19T23:40:52.249Z,1.90
2018-12-19T23:43:21.515Z,1.90
2018-12-19T23:45:51.612Z,2.00
2018-12-19T23:48:20.989Z,2.00
2018-12-19T23:50:50.269Z,2.00
2018-12-19T23:53:19.476Z,2.00
2018-12-19T23:55:48.758Z,2.00
2018-12-19T23:58:17.913Z,2.00
